Time;durP1;ratioP1;P1;durP2;ratioP2;P2;SDS_P1;SDS_P2;PMS_P1;PMS_P2;Temp;Humidity;BMP_temperature;BMP_pressure;BME280_temperature;BME280_humidity;BME280_pressure;Samples;Min_cycle;Max_cycle;Signal;HPM_P1;HPM_P2
2023/07/03 00:01:07;;;;;;;10.70;4.30;;;;;;;;;;5018386;28;20107;-76
2023/07/03 00:03:33;;;;;;;9.02;3.65;;;;;;;;;;5035438;28;20080;-76
2023/07/03 00:06:01;;;;;;;10.25;3.97;;;;;;;;;;5034565;28;20067;-76
2023/07/03 00:08:27;;;;;;;10.85;4.13;;;;;;;;;;5018183;28;20045;-76
2023/07/03 00:11:00;;;;;;;11.98;4.22;;;;;;;;;;5034388;28;20405;-76
2023/07/03 00:13:26;;;;;;;11.82;4.22;;;;;;;;;;5001043;28;20045;-76
2023/07/03 00:15:58;;;;;;;11.43;3.78;;;;;;;;;;5034504;28;20497;-76
2023/07/03 00:18:24;;;;;;;12.35;4.32;;;;;;;;;;5017991;28;20103;-76
2023/07/03 00:20:54;;;;;;;12.18;3.95;;;;;;;;;;5018183;28;20045;-76
2023/07/03 00:23:24;;;;;;;11.60;4.28;;;;;;;;;;5035214;28;20045;-76
2023/07/03 00:25:50;;;;;;;14.00;4.10;;;;;;;;;;5034294;28;20132;-76
2023/07/03 00:28:17;;;;;;;12.52;4.22;;;;;;;;;;5034223;28;20078;-76
2023/07/03 00:30:43;;;;;;;13.45;3.78;;;;;;;;;;5034037;28;20049;-76
2023/07/03 00:33:10;;;;;;;17.50;4.78;;;;;;;;;;5034704;28;20084;-76
2023/07/03 00:35:36;;;;;;;12.77;3.92;;;;;;;;;;5000951;28;20398;-76
2023/07/03 00:38:02;;;;;;;12.35;3.55;;;;;;;;;;5017979;28;20053;-76
2023/07/03 00:40:28;;;;;;;10.40;3.72;;;;;;;;;;5034009;28;20064;-76
2023/07/03 00:42:55;;;;;;;22.00;3.90;;;;;;;;;;5034846;28;20481;-76
2023/07/03 00:45:21;;;;;;;12.40;3.97;;;;;;;;;;5033978;28;20049;-76
2023/07/03 00:47:47;;;;;;;12.27;3.70;;;;;;;;;;5017407;28;20049;-76
2023/07/03 00:50:14;;;;;;;14.18;4.30;;;;;;;;;;5018152;28;20051;-76
2023/07/03 00:52:41;;;;;;;12.45;3.65;;;;;;;;;;5033787;28;20045;-76
2023/07/03 00:55:10;;;;;;;14.48;4.30;;;;;;;;;;5017645;28;20493;-76
2023/07/03 00:57:36;;;;;;;13.02;4.00;;;;;;;;;;5033647;28;20469;-76
2023/07/03 01:00:04;;;;;;;15.13;4.47;;;;;;;;;;5033497;28;20053;-80
2023/07/03 01:02:34;;;;;;;11.07;3.40;;;;;;;;;;5033676;28;20485;-80
2023/07/03 01:05:03;;;;;;;14.73;4.25;;;;;;;;;;5033055;28;20046;-80
2023/07/03 01:07:31;;;;;;;10.38;3.67;;;;;;;;;;5033262;28;20081;-80
2023/07/03 01:10:00;;;;;;;12.43;3.28;;;;;;;;;;5017513;28;20132;-81
2023/07/03 01:12:28;;;;;;;9.98;3.72;;;;;;;;;;5033239;28;20045;-80
2023/07/03 01:14:57;;;;;;;14.23;3.55;;;;;;;;;;5033238;28;20049;-80
2023/07/03 01:17:24;;;;;;;15.50;4.22;;;;;;;;;;5034013;28;20506;-80
2023/07/03 01:19:51;;;;;;;9.85;3.88;;;;;;;;;;5017508;28;20057;-80
2023/07/03 01:22:23;;;;;;;16.20;4.18;;;;;;;;;;5033163;28;20046;-80
2023/07/03 01:24:57;;;;;;;13.32;3.90;;;;;;;;;;5032826;28;20489;-80
2023/07/03 01:27:25;;;;;;;11.00;3.80;;;;;;;;;;5033051;28;20052;-80
2023/07/03 01:29:52;;;;;;;12.32;4.03;;;;;;;;;;5032941;28;20183;-80
2023/07/03 01:32:22;;;;;;;13.52;3.83;;;;;;;;;;5032618;28;20053;-81
2023/07/03 01:34:49;;;;;;;16.70;3.85;;;;;;;;;;5032603;28;20053;-81
2023/07/03 01:37:18;;;;;;;14.75;3.95;;;;;;;;;;5032664;28;20566;-81
2023/07/03 01:39:45;;;;;;;13.48;3.72;;;;;;;;;;5033018;28;20041;-80
2023/07/03 01:42:12;;;;;;;17.48;3.92;;;;;;;;;;5032856;28;20478;-80
2023/07/03 01:44:39;;;;;;;14.30;3.85;;;;;;;;;;5033006;28;20128;-81
2023/07/03 01:47:14;;;;;;;11.50;3.35;;;;;;;;;;5032710;28;20478;-81
2023/07/03 01:49:40;;;;;;;11.63;3.72;;;;;;;;;;5032704;28;20056;-80
2023/07/03 01:52:06;;;;;;;15.32;3.80;;;;;;;;;;5032714;28;20136;-80
2023/07/03 01:54:40;;;;;;;14.93;4.03;;;;;;;;;;5032845;28;20081;-80
2023/07/03 01:57:07;;;;;;;16.13;3.38;;;;;;;;;;5033428;28;20076;-81
2023/07/03 01:59:33;;;;;;;16.15;4.10;;;;;;;;;;5032681;28;20099;-80
2023/07/03 02:02:12;;;;;;;17.25;3.38;;;;;;;;;;5016987;28;20095;-81
2023/07/03 02:04:42;;;;;;;20.42;3.97;;;;;;;;;;5032607;28;20485;-80
2023/07/03 02:07:09;;;;;;;15.45;3.90;;;;;;;;;;5015594;28;20045;-80
2023/07/03 02:09:36;;;;;;;14.23;3.30;;;;;;;;;;5032471;28;20099;-80
2023/07/03 02:12:04;;;;;;;19.65;4.82;;;;;;;;;;5015767;28;20081;-80
2023/07/03 02:14:30;;;;;;;15.52;3.55;;;;;;;;;;5033187;28;20045;-81
2023/07/03 02:16:56;;;;;;;19.55;3.95;;;;;;;;;;5032467;28;20397;-81
2023/07/03 02:19:28;;;;;;;15.90;3.65;;;;;;;;;;5032438;28;20045;-80
2023/07/03 02:21:55;;;;;;;18.63;3.60;;;;;;;;;;5032468;28;20489;-81
2023/07/03 02:24:22;;;;;;;17.02;3.80;;;;;;;;;;5016718;28;20041;-80
2023/07/03 02:26:48;;;;;;;17.13;3.75;;;;;;;;;;5033123;28;20041;-80
2023/07/03 02:29:15;;;;;;;14.35;4.05;;;;;;;;;;5032345;28;20042;-80
2023/07/03 02:31:41;;;;;;;19.83;3.50;;;;;;;;;;5016331;28;20038;-79
2023/07/03 02:34:07;;;;;;;15.75;3.88;;;;;;;;;;5032994;28;20132;-80
2023/07/03 02:36:37;;;;;;;14.93;4.15;;;;;;;;;;5034257;28;20049;-80
2023/07/03 02:39:05;;;;;;;14.52;3.95;;;;;;;;;;5036221;28;20053;-80
2023/07/03 02:41:31;;;;;;;25.17;4.97;;;;;;;;;;5036418;28;20079;-81
2023/07/03 02:43:57;;;;;;;16.55;3.33;;;;;;;;;;5036052;28;20049;-80
2023/07/03 02:46:24;;;;;;;17.13;4.15;;;;;;;;;;5036124;28;20136;-80
2023/07/03 02:48:50;;;;;;;16.45;3.53;;;;;;;;;;5036813;28;20049;-80
2023/07/03 02:51:16;;;;;;;19.08;3.70;;;;;;;;;;5019353;28;20497;-81
2023/07/03 02:53:42;;;;;;;22.45;3.88;;;;;;;;;;5036184;28;20481;-80
2023/07/03 02:56:09;;;;;;;20.27;4.18;;;;;;;;;;5019413;28;20084;-81
2023/07/03 02:58:35;;;;;;;20.67;4.32;;;;;;;;;;5035852;28;20092;-80
2023/07/03 03:01:01;;;;;;;13.95;3.63;;;;;;;;;;5035758;28;20057;-81
2023/07/03 03:03:28;;;;;;;12.98;3.58;;;;;;;;;;5036013;28;20052;-80
2023/07/03 03:05:55;;;;;;;18.45;3.85;;;;;;;;;;5003195;28;20053;-81
2023/07/03 03:08:21;;;;;;;12.10;3.20;;;;;;;;;;5035677;28;20068;-80
2023/07/03 03:10:48;;;;;;;15.48;3.47;;;;;;;;;;5019289;28;20045;-80
2023/07/03 03:13:14;;;;;;;12.05;3.72;;;;;;;;;;5035564;28;20131;-80
2023/07/03 03:15:40;;;;;;;14.35;3.47;;;;;;;;;;5036279;28;20100;-80
2023/07/03 03:18:06;;;;;;;12.88;3.15;;;;;;;;;;5035519;28;20092;-80
2023/07/03 03:20:32;;;;;;;12.45;3.15;;;;;;;;;;5035660;28;20046;-80
2023/07/03 03:22:59;;;;;;;10.27;2.72;;;;;;;;;;5035339;28;20056;-81
2023/07/03 03:25:25;;;;;;;12.25;3.60;;;;;;;;;;5035368;28;20162;-81
2023/07/03 03:27:51;;;;;;;13.95;3.70;;;;;;;;;;5035260;28;20488;-81
2023/07/03 03:30:17;;;;;;;15.15;3.42;;;;;;;;;;5035394;28;20038;-81
2023/07/03 03:32:44;;;;;;;15.45;4.13;;;;;;;;;;5035432;28;20518;-81
2023/07/03 03:35:10;;;;;;;10.77;3.38;;;;;;;;;;5034664;28;20061;-80
2023/07/03 03:37:36;;;;;;;9.40;3.15;;;;;;;;;;5019363;28;20053;-80
2023/07/03 03:40:03;;;;;;;13.63;3.03;;;;;;;;;;5035120;28;20183;-80
2023/07/03 03:42:29;;;;;;;14.57;3.42;;;;;;;;;;5035875;28;20533;-80
2023/07/03 03:44:55;;;;;;;15.20;3.70;;;;;;;;;;5035134;28;20413;-80
2023/07/03 03:47:22;;;;;;;13.30;2.92;;;;;;;;;;5035759;28;20179;-80
2023/07/03 03:49:48;;;;;;;10.98;2.90;;;;;;;;;;5002285;28;20053;-80
2023/07/03 03:52:15;;;;;;;16.02;3.33;;;;;;;;;;5034929;28;20045;-80
2023/07/03 03:54:41;;;;;;;13.07;3.47;;;;;;;;;;5034632;28;20405;-80
2023/07/03 03:57:07;;;;;;;14.27;3.40;;;;;;;;;;5035006;28;20045;-80
2023/07/03 03:59:33;;;;;;;14.48;3.45;;;;;;;;;;5034798;28;20535;-79
2023/07/03 04:01:59;;;;;;;10.63;2.42;;;;;;;;;;5034818;28;20053;-80
2023/07/03 04:04:25;;;;;;;12.38;3.08;;;;;;;;;;5018335;28;20050;-80
2023/07/03 04:06:52;;;;;;;14.13;3.22;;;;;;;;;;5001643;28;20080;-79
2023/07/03 04:09:18;;;;;;;10.95;2.97;;;;;;;;;;5034893;28;20095;-79
2023/07/03 04:11:44;;;;;;;14.18;3.10;;;;;;;;;;5034562;28;20109;-79
2023/07/03 04:14:12;;;;;;;14.20;3.47;;;;;;;;;;5017729;28;20045;-79
2023/07/03 04:16:38;;;;;;;10.68;3.42;;;;;;;;;;5017995;28;20119;-79
2023/07/03 04:19:05;;;;;;;10.45;2.80;;;;;;;;;;5034908;28;20041;-79
2023/07/03 04:21:31;;;;;;;9.80;2.80;;;;;;;;;;5035207;28;20057;-80
2023/07/03 04:23:57;;;;;;;9.63;2.75;;;;;;;;;;5034323;28;20042;-79
2023/07/03 04:26:23;;;;;;;9.85;2.78;;;;;;;;;;5017906;28;20053;-79
2023/07/03 04:28:50;;;;;;;11.55;3.17;;;;;;;;;;5034229;28;20128;-79
2023/07/03 04:31:16;;;;;;;14.32;2.83;;;;;;;;;;5034583;28;20054;-80
2023/07/03 04:33:45;;;;;;;14.93;2.88;;;;;;;;;;5034114;28;20041;-79
2023/07/03 04:36:11;;;;;;;11.40;2.85;;;;;;;;;;5017228;28;20140;-79
2023/07/03 04:38:39;;;;;;;9.82;3.08;;;;;;;;;;5017788;28;20053;-80
2023/07/03 04:41:05;;;;;;;11.45;3.30;;;;;;;;;;5018356;28;20057;-79
2023/07/03 04:43:31;;;;;;;8.35;2.70;;;;;;;;;;5033937;28;20121;-80
2023/07/03 04:46:02;;;;;;;11.32;2.10;;;;;;;;;;5018189;28;20443;-79
2023/07/03 04:48:29;;;;;;;9.65;2.90;;;;;;;;;;5017700;28;20099;-80
2023/07/03 04:50:55;;;;;;;9.00;2.67;;;;;;;;;;5017497;28;20041;-80
2023/07/03 04:53:21;;;;;;;14.77;2.53;;;;;;;;;;5001389;28;20049;-80
2023/07/03 04:55:47;;;;;;;12.13;2.80;;;;;;;;;;5033728;28;20556;-80
2023/07/03 04:58:14;;;;;;;14.15;2.80;;;;;;;;;;5016742;28;20053;-80
2023/07/03 05:00:40;;;;;;;9.20;2.38;;;;;;;;;;5017984;28;20144;-80
2023/07/03 05:03:07;;;;;;;10.30;2.83;;;;;;;;;;5033569;28;20045;-80
2023/07/03 05:05:34;;;;;;;10.88;3.08;;;;;;;;;;5033427;28;20075;-80
2023/07/03 05:08:00;;;;;;;12.23;2.38;;;;;;;;;;5033395;28;20045;-79
2023/07/03 05:10:26;;;;;;;9.65;2.15;;;;;;;;;;5017085;28;20067;-79
2023/07/03 05:12:52;;;;;;;11.10;2.88;;;;;;;;;;5033396;28;20077;-79
2023/07/03 05:15:19;;;;;;;8.18;1.92;;;;;;;;;;5034042;28;20052;-80
2023/07/03 05:17:54;;;;;;;13.45;2.50;;;;;;;;;;5016767;28;20111;-80
2023/07/03 05:20:22;;;;;;;8.15;2.10;;;;;;;;;;5033242;28;20084;-80
2023/07/03 05:22:48;;;;;;;15.05;2.65;;;;;;;;;;5033397;28;20135;-80
2023/07/03 05:25:16;;;;;;;11.60;2.80;;;;;;;;;;5033849;28;20049;-81
2023/07/03 05:27:42;;;;;;;12.27;2.90;;;;;;;;;;5016639;28;20057;-80
2023/07/03 05:30:08;;;;;;;16.10;3.30;;;;;;;;;;5032927;28;20041;-80
2023/07/03 05:32:35;;;;;;;11.25;2.67;;;;;;;;;;5016856;28;20135;-80
2023/07/03 05:35:03;;;;;;;11.57;3.50;;;;;;;;;;5032844;28;20401;-79
2023/07/03 05:37:29;;;;;;;12.68;2.42;;;;;;;;;;5016340;28;20057;-79
2023/07/03 05:39:55;;;;;;;13.20;2.78;;;;;;;;;;5032853;28;20038;-80
2023/07/03 05:42:22;;;;;;;16.05;2.50;;;;;;;;;;5032860;28;20135;-80
2023/07/03 05:44:48;;;;;;;13.40;3.03;;;;;;;;;;5016346;28;20045;-80
2023/07/03 05:47:15;;;;;;;11.27;2.25;;;;;;;;;;5032720;28;20048;-80
2023/07/03 05:49:41;;;;;;;12.20;2.33;;;;;;;;;;5032951;28;20045;-80
2023/07/03 05:52:08;;;;;;;13.90;2.65;;;;;;;;;;5015880;28;20049;-77
2023/07/03 05:54:34;;;;;;;7.55;1.63;;;;;;;;;;5016227;28;20053;-79
2023/07/03 05:57:04;;;;;;;7.82;1.70;;;;;;;;;;5032908;28;20049;-80
2023/07/03 05:59:31;;;;;;;9.30;1.80;;;;;;;;;;5016397;28;20477;-79
2023/07/03 06:01:57;;;;;;;7.55;1.50;;;;;;;;;;5016958;28;20400;-79
2023/07/03 06:04:24;;;;;;;8.88;1.50;;;;;;;;;;5033336;28;20046;-79
2023/07/03 06:06:57;;;;;;;7.70;1.30;;;;;;;;;;5032188;28;20041;-80
2023/07/03 06:09:24;;;;;;;9.20;1.10;;;;;;;;;;5032475;28;20041;-80
2023/07/03 06:11:51;;;;;;;4.25;1.13;;;;;;;;;;5031502;28;20449;-80
2023/07/03 06:14:17;;;;;;;8.10;1.10;;;;;;;;;;5032538;28;20056;-81
2023/07/03 06:16:44;;;;;;;5.95;0.82;;;;;;;;;;5032794;28;20072;-80
2023/07/03 06:19:11;;;;;;;8.25;1.20;;;;;;;;;;5016028;28;20049;-80
2023/07/03 06:21:37;;;;;;;7.30;1.10;;;;;;;;;;5032450;28;20397;-80
2023/07/03 06:24:04;;;;;;;8.57;1.10;;;;;;;;;;5032409;28;20053;-80
2023/07/03 06:26:30;;;;;;;4.70;0.95;;;;;;;;;;5015974;28;20477;-80
2023/07/03 06:28:56;;;;;;;8.15;1.25;;;;;;;;;;5032364;28;20240;-79
2023/07/03 06:31:23;;;;;;;5.65;1.33;;;;;;;;;;5016493;28;20484;-79
2023/07/03 06:33:49;;;;;;;7.15;1.13;;;;;;;;;;5015939;28;20141;-80
2023/07/03 06:36:20;;;;;;;11.27;1.60;;;;;;;;;;5031864;28;20060;-81
2023/07/03 06:38:47;;;;;;;9.05;1.77;;;;;;;;;;5032578;28;20128;-80
2023/07/03 06:41:13;;;;;;;9.00;1.08;;;;;;;;;;4999490;28;20038;-79
2023/07/03 06:43:39;;;;;;;9.32;1.38;;;;;;;;;;5000278;28;20060;-80
2023/07/03 06:46:05;;;;;;;5.90;1.20;;;;;;;;;;5032641;28;20052;-80
2023/07/03 06:48:31;;;;;;;6.32;0.93;;;;;;;;;;5032088;28;20545;-80
2023/07/03 06:51:11;;;;;;;8.63;0.90;;;;;;;;;;5031881;28;20539;-79
2023/07/03 06:53:37;;;;;;;6.70;0.90;;;;;;;;;;5015982;28;20045;-80
2023/07/03 06:56:04;;;;;;;7.13;1.10;;;;;;;;;;5032355;28;20442;-80
2023/07/03 06:58:31;;;;;;;8.60;0.90;;;;;;;;;;4999333;28;20049;-80
2023/07/03 07:00:57;;;;;;;5.95;1.23;;;;;;;;;;5015539;28;20050;-79
2023/07/03 07:03:24;;;;;;;9.60;1.10;;;;;;;;;;5015606;28;20049;-79
2023/07/03 07:05:51;;;;;;;7.28;1.08;;;;;;;;;;5015348;28;20490;-80
2023/07/03 07:08:18;;;;;;;9.30;0.68;;;;;;;;;;5031934;28;20053;-79
2023/07/03 07:10:44;;;;;;;5.28;0.65;;;;;;;;;;5015299;28;20389;-80
2023/07/03 07:13:11;;;;;;;6.88;0.80;;;;;;;;;;5032699;28;20136;-80
2023/07/03 07:15:37;;;;;;;6.72;0.80;;;;;;;;;;5031929;28;20049;-80
2023/07/03 07:18:03;;;;;;;8.85;0.70;;;;;;;;;;5015941;28;20049;-80
2023/07/03 07:20:30;;;;;;;8.60;0.68;;;;;;;;;;5015360;28;20496;-79
2023/07/03 07:22:56;;;;;;;7.28;0.50;;;;;;;;;;5034059;28;20049;-80
2023/07/03 07:25:22;;;;;;;3.30;0.50;;;;;;;;;;5035338;28;20515;-79
2023/07/03 07:27:48;;;;;;;6.53;0.70;;;;;;;;;;5019731;28;20064;-80
2023/07/03 07:30:14;;;;;;;5.20;0.82;;;;;;;;;;5035229;28;20041;-79
2023/07/03 07:32:40;;;;;;;5.07;1.20;;;;;;;;;;5035490;28;20059;-80
2023/07/03 07:35:07;;;;;;;8.65;0.82;;;;;;;;;;5034761;28;20111;-79
2023/07/03 07:37:34;;;;;;;5.30;1.15;;;;;;;;;;5018316;28;20497;-80
2023/07/03 07:40:00;;;;;;;6.65;0.68;;;;;;;;;;5035099;28;20042;-79
2023/07/03 07:42:29;;;;;;;5.53;0.95;;;;;;;;;;5035063;28;20037;-79
2023/07/03 07:44:55;;;;;;;6.90;0.93;;;;;;;;;;5018877;28;20474;-79
2023/07/03 07:47:21;;;;;;;4.50;1.20;;;;;;;;;;5035076;28;20452;-80
2023/07/03 07:49:47;;;;;;;6.63;0.90;;;;;;;;;;5019063;28;20377;-79
2023/07/03 07:52:15;;;;;;;6.88;0.88;;;;;;;;;;5034551;28;20485;-80
2023/07/03 07:54:41;;;;;;;9.70;1.48;;;;;;;;;;5019150;28;20052;-79
2023/07/03 07:57:08;;;;;;;4.93;1.08;;;;;;;;;;5034814;28;20041;-80
2023/07/03 07:59:37;;;;;;;6.18;0.93;;;;;;;;;;5034735;28;20508;-80
2023/07/03 08:02:03;;;;;;;8.75;0.80;;;;;;;;;;5001973;28;20048;-80
2023/07/03 08:04:29;;;;;;;6.70;1.42;;;;;;;;;;5018209;28;20060;-80
2023/07/03 08:06:55;;;;;;;9.32;0.90;;;;;;;;;;5035351;28;20176;-80
2023/07/03 08:09:23;;;;;;;4.65;0.65;;;;;;;;;;5018168;28;20049;-80
2023/07/03 08:11:49;;;;;;;5.63;0.90;;;;;;;;;;5034969;28;20095;-80
2023/07/03 08:14:15;;;;;;;4.55;0.68;;;;;;;;;;5001796;28;20052;-80
2023/07/03 08:16:41;;;;;;;4.90;0.60;;;;;;;;;;5034464;28;20049;-80
2023/07/03 08:19:08;;;;;;;8.27;1.83;;;;;;;;;;5035144;28;20049;-81
2023/07/03 08:21:34;;;;;;;4.93;0.47;;;;;;;;;;5034201;28;20049;-81
2023/07/03 08:24:00;;;;;;;5.20;0.40;;;;;;;;;;5034213;28;20041;-81
2023/07/03 08:26:26;;;;;;;4.90;0.32;;;;;;;;;;5017944;28;20080;-80
2023/07/03 08:28:52;;;;;;;6.80;0.50;;;;;;;;;;5017804;28;20478;-81
2023/07/03 08:31:19;;;;;;;3.88;0.50;;;;;;;;;;5001411;28;20041;-81
2023/07/03 08:33:46;;;;;;;7.03;0.57;;;;;;;;;;5016704;28;20045;-81
2023/07/03 08:36:12;;;;;;;3.33;0.55;;;;;;;;;;5016757;28;20084;-80
2023/07/03 08:38:38;;;;;;;2.95;0.52;;;;;;;;;;5017635;28;20054;-81
2023/07/03 08:41:04;;;;;;;8.43;0.88;;;;;;;;;;5034268;28;20053;-79
2023/07/03 08:43:33;;;;;;;4.63;0.50;;;;;;;;;;5033937;28;20080;-80
2023/07/03 08:46:00;;;;;;;5.00;0.50;;;;;;;;;;5017031;28;20060;-81
2023/07/03 08:48:28;;;;;;;4.07;0.50;;;;;;;;;;5017407;28;20053;-81
2023/07/03 08:50:59;;;;;;;3.67;0.60;;;;;;;;;;5017193;28;20041;-80
2023/07/03 08:53:45;;;;;;;7.18;1.08;;;;;;;;;;5033450;28;20050;-80
2023/07/03 08:56:20;;;;;;;4.80;0.73;;;;;;;;;;5033543;28;20041;-81
2023/07/03 08:58:47;;;;;;;4.22;0.50;;;;;;;;;;5017111;28;20059;-81
2023/07/03 09:01:28;;;;;;;3.40;0.38;;;;;;;;;;5033545;28;20443;-81
2023/07/03 09:04:09;;;;;;;4.80;0.57;;;;;;;;;;5033554;28;20089;-81
2023/07/03 09:06:44;;;;;;;4.15;0.43;;;;;;;;;;5034192;28;20037;-81
2023/07/03 09:09:11;;;;;;;5.72;0.50;;;;;;;;;;5033650;28;20433;-80
2023/07/03 09:11:39;;;;;;;3.92;0.50;;;;;;;;;;5033165;28;20055;-80
2023/07/03 09:14:09;;;;;;;5.10;0.73;;;;;;;;;;5033631;28;20045;-80
2023/07/03 09:16:38;;;;;;;1.90;0.50;;;;;;;;;;5016876;28;20577;-79
2023/07/03 09:19:10;;;;;;;4.22;0.75;;;;;;;;;;5033520;28;20053;-81
2023/07/03 09:21:37;;;;;;;4.72;0.65;;;;;;;;;;5016555;28;20049;-81
2023/07/03 09:24:21;;;;;;;5.75;0.60;;;;;;;;;;5032836;28;20106;-80
2023/07/03 09:26:53;;;;;;;5.72;0.50;;;;;;;;;;5017365;28;20053;-80
2023/07/03 09:29:20;;;;;;;5.25;0.55;;;;;;;;;;5033049;28;20080;-80
2023/07/03 09:31:46;;;;;;;2.97;0.50;;;;;;;;;;5016311;28;20091;-81
2023/07/03 09:34:12;;;;;;;5.13;0.65;;;;;;;;;;5033799;28;20049;-81
2023/07/03 09:36:40;;;;;;;5.10;0.57;;;;;;;;;;5016067;28;20053;-81
2023/07/03 09:39:14;;;;;;;6.57;0.68;;;;;;;;;;5032900;28;20049;-80
2023/07/03 09:41:41;;;;;;;9.00;1.15;;;;;;;;;;5032847;28;20041;-81
2023/07/03 09:44:08;;;;;;;4.95;0.60;;;;;;;;;;5016105;28;20494;-81
2023/07/03 09:46:34;;;;;;;3.35;0.40;;;;;;;;;;5016698;28;20045;-81
2023/07/03 09:49:05;;;;;;;5.65;0.80;;;;;;;;;;5016502;28;20504;-81
2023/07/03 09:51:31;;;;;;;6.22;0.80;;;;;;;;;;5032927;28;20045;-80
2023/07/03 09:53:59;;;;;;;6.82;0.60;;;;;;;;;;5032701;28;20497;-80
2023/07/03 09:56:30;;;;;;;2.85;0.40;;;;;;;;;;5033509;28;20103;-80
2023/07/03 09:59:00;;;;;;;5.32;0.50;;;;;;;;;;5033016;28;20386;-80
2023/07/03 10:01:28;;;;;;;4.18;0.50;;;;;;;;;;5033219;28;20099;-81
2023/07/03 10:04:03;;;;;;;4.28;0.50;;;;;;;;;;5032701;28;20428;-81
2023/07/03 10:06:29;;;;;;;7.82;0.93;;;;;;;;;;5016149;28;20132;-81
2023/07/03 10:08:59;;;;;;;4.20;0.43;;;;;;;;;;5016398;28;20103;-80
2023/07/03 10:11:29;;;;;;;3.33;0.32;;;;;;;;;;5033177;28;20046;-80
2023/07/03 10:13:56;;;;;;;5.25;0.52;;;;;;;;;;5016390;28;20057;-80
2023/07/03 10:16:24;;;;;;;5.70;0.50;;;;;;;;;;5032481;28;20053;-81
2023/07/03 10:18:51;;;;;;;4.55;0.40;;;;;;;;;;5032522;28;20148;-80
2023/07/03 10:21:20;;;;;;;4.10;0.52;;;;;;;;;;5032440;28;20053;-80
2023/07/03 10:23:47;;;;;;;6.72;0.57;;;;;;;;;;5032430;28;20132;-80
2023/07/03 10:26:19;;;;;;;6.50;0.50;;;;;;;;;;5032634;28;20085;-80
2023/07/03 10:28:51;;;;;;;2.83;0.50;;;;;;;;;;5015988;28;20136;-80
2023/07/03 10:31:24;;;;;;;3.92;0.55;;;;;;;;;;5032968;28;20042;-80
2023/07/03 10:33:51;;;;;;;3.50;0.95;;;;;;;;;;5033200;28;20053;-80
2023/07/03 10:36:23;;;;;;;3.40;0.40;;;;;;;;;;5015518;28;20096;-81
2023/07/03 10:38:50;;;;;;;2.65;0.43;;;;;;;;;;5032544;28;20053;-80
2023/07/03 10:41:23;;;;;;;1.63;0.20;;;;;;;;;;5015840;28;20091;-81
2023/07/03 10:43:55;;;;;;;4.13;0.30;;;;;;;;;;5032195;28;20485;-81
2023/07/03 10:46:31;;;;;;;2.72;0.32;;;;;;;;;;5015789;28;20144;-81
2023/07/03 10:48:59;;;;;;;3.35;0.30;;;;;;;;;;5016015;28;20091;-80
2023/07/03 10:51:44;;;;;;;3.78;0.30;;;;;;;;;;5016399;28;20378;-80
2023/07/03 10:54:26;;;;;;;3.47;0.38;;;;;;;;;;5032354;28;20187;-80
2023/07/03 10:56:55;;;;;;;4.35;0.30;;;;;;;;;;5033527;28;20046;-80
2023/07/03 10:59:34;;;;;;;3.63;0.30;;;;;;;;;;5019712;28;20045;-80
2023/07/03 11:02:14;;;;;;;2.97;0.40;;;;;;;;;;5035866;28;20091;-80
2023/07/03 11:04:40;;;;;;;1.65;0.20;;;;;;;;;;5035488;28;20056;-80
2023/07/03 11:07:09;;;;;;;3.33;0.25;;;;;;;;;;5035923;28;20045;-81
2023/07/03 11:09:35;;;;;;;3.47;0.40;;;;;;;;;;5019173;28;20045;-80
2023/07/03 11:12:19;;;;;;;2.40;0.30;;;;;;;;;;5018938;28;20392;-81
2023/07/03 11:15:12;;;;;;;3.08;0.30;;;;;;;;;;5035597;28;20050;-80
2023/07/03 11:17:47;;;;;;;2.28;0.30;;;;;;;;;;5011085;28;20087;-80
2023/07/03 11:20:17;;;;;;;1.77;0.30;;;;;;;;;;5018820;28;20056;-81
2023/07/03 11:23:02;;;;;;;2.15;0.22;;;;;;;;;;5035550;28;20045;-80
2023/07/03 11:25:28;;;;;;;;;;;;;;;;;;5036295;28;20054;-80
2023/07/03 11:28:03;;;;;;;2.92;0.32;;;;;;;;;;5035516;28;19921;-80
2023/07/03 11:30:31;;;;;;;2.97;0.30;;;;;;;;;;5036076;28;20436;-81
2023/07/03 11:32:59;;;;;;;5.75;0.30;;;;;;;;;;5018956;28;20447;-80
2023/07/03 11:35:26;;;;;;;4.00;0.30;;;;;;;;;;5035619;28;20057;-80
2023/07/03 11:38:00;;;;;;;3.95;0.30;;;;;;;;;;5018976;28;20431;-81
2023/07/03 11:40:26;;;;;;;;;;;;;;;;;;5036487;28;20060;-81
2023/07/03 11:43:11;;;;;;;1.42;0.30;;;;;;;;;;5035367;28;19921;-81
2023/07/03 11:45:37;;;;;;;1.80;0.20;;;;;;;;;;5035383;28;20124;-81
2023/07/03 11:48:03;;;;;;;1.67;0.20;;;;;;;;;;5019320;28;20053;-81
2023/07/03 11:50:31;;;;;;;3.78;0.30;;;;;;;;;;5019253;28;20049;-81
2023/07/03 11:52:57;;;;;;;2.33;0.40;;;;;;;;;;5034931;28;20057;-81
2023/07/03 11:55:34;;;;;;;4.45;0.40;;;;;;;;;;5019319;28;20049;-81
2023/07/03 11:58:01;;;;;;;4.25;0.30;;;;;;;;;;5035121;28;20049;-80
2023/07/03 12:00:29;;;;;;;2.42;0.40;;;;;;;;;;5035309;28;20130;-80
2023/07/03 12:03:14;;;;;;;1.95;0.20;;;;;;;;;;5034827;28;20050;-80
2023/07/03 12:05:43;;;;;;;1.88;0.28;;;;;;;;;;5017977;28;20136;-81
2023/07/03 12:08:18;;;;;;;1.80;0.30;;;;;;;;;;5033366;28;20413;-81
2023/07/03 12:10:57;;;;;;;5.25;0.35;;;;;;;;;;5034490;28;20042;-81
2023/07/03 12:13:28;;;;;;;1.67;0.15;;;;;;;;;;5018378;28;20567;-80
2023/07/03 12:15:58;;;;;;;2.05;0.50;;;;;;;;;;5034537;28;20093;-81
2023/07/03 12:18:24;;;;;;;1.90;0.30;;;;;;;;;;5034124;28;20050;-81
2023/07/03 12:20:58;;;;;;;1.70;0.20;;;;;;;;;;5034668;28;20049;-81
2023/07/03 12:23:31;;;;;;;5.55;0.60;;;;;;;;;;5034434;28;20466;-81
2023/07/03 12:26:05;;;;;;;3.63;0.30;;;;;;;;;;5034342;28;20048;-81
2023/07/03 12:28:31;;;;;;;4.38;0.43;;;;;;;;;;5034299;28;20045;-80
2023/07/03 12:31:20;;;;;;;3.63;0.20;;;;;;;;;;5034907;28;20053;-80
2023/07/03 12:33:50;;;;;;;3.88;0.30;;;;;;;;;;5034294;28;20507;-80
2023/07/03 12:36:24;;;;;;;1.55;0.30;;;;;;;;;;5017236;28;20049;-80
2023/07/03 12:38:50;;;;;;;2.25;0.30;;;;;;;;;;5034066;28;20049;-80
2023/07/03 12:41:21;;;;;;;2.85;0.40;;;;;;;;;;5017575;28;20477;-81
2023/07/03 12:43:48;;;;;;;2.42;0.20;;;;;;;;;;5034765;28;20053;-80
2023/07/03 12:46:25;;;;;;;3.63;0.30;;;;;;;;;;5018251;28;20053;-80
2023/07/03 12:49:00;;;;;;;2.80;0.20;;;;;;;;;;5033890;28;20485;-80
2023/07/03 12:51:26;;;;;;;3.15;0.30;;;;;;;;;;5035380;28;20072;-80
2023/07/03 12:53:52;;;;;;;3.22;0.30;;;;;;;;;;5017409;28;20045;-81
2023/07/03 12:56:18;;;;;;;1.42;0.22;;;;;;;;;;5017341;28;20440;-80
2023/07/03 12:58:44;;;;;;;3.50;0.45;;;;;;;;;;5034473;28;20049;-81
2023/07/03 13:01:11;;;;;;;4.53;0.30;;;;;;;;;;5017362;28;20064;-80
2023/07/03 13:03:41;;;;;;;2.85;0.30;;;;;;;;;;5017162;28;20088;-80
2023/07/03 13:06:21;;;;;;;3.25;0.40;;;;;;;;;;5016984;28;20057;-81
2023/07/03 13:08:48;;;;;;;5.57;0.50;;;;;;;;;;5033899;28;20045;-80
2023/07/03 13:11:14;;;;;;;2.33;0.38;;;;;;;;;;5033569;28;20052;-80
2023/07/03 13:13:40;;;;;;;2.72;0.40;;;;;;;;;;5000815;28;20132;-80
2023/07/03 13:16:13;;;;;;;3.13;0.45;;;;;;;;;;5034213;28;20053;-80
2023/07/03 13:18:40;;;;;;;5.13;0.45;;;;;;;;;;5016669;28;20049;-80
2023/07/03 13:21:07;;;;;;;2.80;0.40;;;;;;;;;;5000383;28;20490;-81
2023/07/03 13:23:35;;;;;;;6.78;0.40;;;;;;;;;;5017691;28;20362;-81
2023/07/03 13:26:02;;;;;;;5.47;0.77;;;;;;;;;;5033302;28;20079;-80
2023/07/03 13:28:30;;;;;;;5.95;0.57;;;;;;;;;;5033185;28;20473;-80
2023/07/03 13:31:11;;;;;;;2.20;0.30;;;;;;;;;;5033049;28;20102;-80
2023/07/03 13:33:38;;;;;;;4.40;0.70;;;;;;;;;;5033972;28;20477;-80
2023/07/03 13:36:30;;;;;;;5.03;0.40;;;;;;;;;;5032557;28;20060;-81
2023/07/03 13:39:03;;;;;;;4.75;0.40;;;;;;;;;;5015254;28;20508;-79
2023/07/03 13:41:29;;;;;;;3.47;0.40;;;;;;;;;;5033894;28;20143;-80
2023/07/03 13:43:59;;;;;;;4.90;0.80;;;;;;;;;;5033027;28;20118;-80
2023/07/03 13:46:26;;;;;;;6.43;0.40;;;;;;;;;;5032934;28;20056;-80
2023/07/03 13:48:56;;;;;;;5.80;0.70;;;;;;;;;;5033067;28;20492;-79
2023/07/03 13:51:22;;;;;;;5.25;0.70;;;;;;;;;;5016259;28;20044;-79
2023/07/03 13:53:48;;;;;;;7.47;1.08;;;;;;;;;;5016687;28;20053;-79
2023/07/03 13:56:14;;;;;;;2.38;0.30;;;;;;;;;;5016634;28;20059;-79
2023/07/03 13:58:40;;;;;;;3.95;0.60;;;;;;;;;;5016439;28;20049;-79
2023/07/03 14:01:06;;;;;;;4.72;0.50;;;;;;;;;;5017145;28;20132;-79
2023/07/03 14:03:32;;;;;;;5.25;0.80;;;;;;;;;;5032327;28;20049;-79
2023/07/03 14:05:59;;;;;;;4.25;0.55;;;;;;;;;;5015868;28;20080;-79
2023/07/03 14:08:27;;;;;;;3.00;0.40;;;;;;;;;;5032519;28;20068;-78
2023/07/03 14:10:53;;;;;;;5.45;0.80;;;;;;;;;;5032458;28;20056;-79
2023/07/03 14:13:19;;;;;;;2.90;0.65;;;;;;;;;;5033336;28;20374;-79
2023/07/03 14:15:45;;;;;;;6.43;1.23;;;;;;;;;;5016395;28;20053;-79
2023/07/03 14:18:11;;;;;;;6.07;0.55;;;;;;;;;;5016903;28;20119;-79
2023/07/03 14:20:38;;;;;;;3.28;0.50;;;;;;;;;;5032528;28;20050;-79
2023/07/03 14:23:05;;;;;;;3.15;0.40;;;;;;;;;;5016853;28;20378;-79
2023/07/03 14:25:31;;;;;;;7.25;0.90;;;;;;;;;;5016777;28;20057;-79
2023/07/03 14:27:58;;;;;;;6.32;0.60;;;;;;;;;;5032731;28;20061;-78
2023/07/03 14:30:25;;;;;;;6.28;1.02;;;;;;;;;;5032370;28;20440;-79
2023/07/03 14:32:51;;;;;;;4.60;0.57;;;;;;;;;;5018728;28;20053;-79
2023/07/03 14:35:17;;;;;;;3.88;0.50;;;;;;;;;;5036145;28;20540;-79
2023/07/03 14:37:43;;;;;;;2.95;0.40;;;;;;;;;;5036566;28;20135;-79
2023/07/03 14:40:11;;;;;;;3.88;0.30;;;;;;;;;;5036308;28;20068;-80
2023/07/03 14:42:37;;;;;;;2.72;0.50;;;;;;;;;;5037097;28;20373;-80
2023/07/03 14:45:03;;;;;;;3.42;0.32;;;;;;;;;;5036962;28;20428;-80